createdAt,value
2018-07-14T00:01:28.669Z,99656.13
2018-07-14T00:03:57.334Z,99652.57
2018-07-14T00:06:25.937Z,99652.22
2018-07-14T00:08:54.594Z,99648.64
2018-07-14T00:11:23.208Z,99652.54
2018-07-14T00:13:51.869Z,99650.25
2018-07-14T00:16:20.587Z,99643.60
2018-07-14T00:18:49.217Z,99651.63
2018-07-14T00:21:17.868Z,99656.27
2018-07-14T00:23:46.507Z,99655.14
2018-07-14T00:26:18.309Z,99656.84
2018-07-14T00:28:47.463Z,99653.17
2018-07-14T00:31:16.290Z,99658.13
2018-07-14T00:33:44.929Z,99651.45
2018-07-14T00:36:13.533Z,99650.56
2018-07-14T00:38:42.235Z,99655.32
2018-07-14T00:41:10.868Z,99653.67
2018-07-14T00:43:39.489Z,99654.12
2018-07-14T00:46:08.101Z,99652.05
2018-07-14T00:48:36.710Z,99652.16
2018-07-14T00:51:06.081Z,99652.47
2018-07-14T00:53:34.686Z,99652.55
2018-07-14T00:56:03.357Z,99649.45
2018-07-14T00:58:32.090Z,99648.98
2018-07-14T01:01:00.697Z,99648.17
2018-07-14T01:03:29.310Z,99653.09
2018-07-14T01:05:57.883Z,99652.98
2018-07-14T01:08:26.505Z,99656.94
2018-07-14T01:10:56.593Z,99659.03
2018-07-14T01:13:25.901Z,99660.50
2018-07-14T01:15:54.542Z,99655.11
2018-07-14T01:18:23.160Z,99655.77
2018-07-14T01:20:51.732Z,99651.61
2018-07-14T01:23:20.337Z,99653.62
2018-07-14T01:25:48.943Z,99651.09
2018-07-14T01:28:17.630Z,99652.38
2018-07-14T01:30:46.320Z,99649.66
2018-07-14T01:33:14.994Z,99660.05
2018-07-14T01:35:43.589Z,99655.08
2018-07-14T01:38:12.228Z,99646.59
2018-07-14T01:40:40.821Z,99650.98
2018-07-14T01:43:09.470Z,99648.84
2018-07-14T01:45:38.091Z,99649.92
2018-07-14T01:48:06.749Z,99651.67
2018-07-14T01:50:35.370Z,99652.35
2018-07-14T01:53:03.978Z,99651.95
2018-07-14T01:55:32.628Z,99654.66
2018-07-14T01:58:01.344Z,99653.03
2018-07-14T02:00:29.976Z,99655.05
2018-07-14T02:02:58.564Z,99658.50
2018-07-14T02:05:27.247Z,99661.39
2018-07-14T02:07:55.855Z,99662.56
2018-07-14T02:10:24.481Z,99659.38
2018-07-14T02:12:53.048Z,99667.76
2018-07-14T02:15:21.906Z,99666.06
2018-07-14T02:17:50.540Z,99666.33
2018-07-14T02:20:19.177Z,99664.15
2018-07-14T02:22:47.781Z,99666.35
2018-07-14T02:25:17.113Z,99659.53
2018-07-14T02:27:46.435Z,99664.66
2018-07-14T02:30:15.129Z,99659.78
2018-07-14T02:32:43.733Z,99666.59
2018-07-14T02:35:12.525Z,99668.36
2018-07-14T02:37:41.286Z,99667.97
2018-07-14T02:40:09.871Z,99665.83
2018-07-14T02:42:38.794Z,99671.44
2018-07-14T02:45:07.686Z,99663.50
2018-07-14T02:47:36.501Z,99667.40
2018-07-14T02:50:05.203Z,99660.27
2018-07-14T02:52:33.974Z,99666.35
2018-07-14T02:55:02.746Z,99667.89
2018-07-14T02:57:31.393Z,99665.61
2018-07-14T03:00:00.073Z,99659.08
2018-07-14T03:02:28.675Z,99661.73
2018-07-14T03:04:57.289Z,99663.88
2018-07-14T03:07:25.893Z,99663.52
2018-07-14T03:09:54.513Z,99665.47
2018-07-14T03:12:23.117Z,99662.36
2018-07-14T03:14:51.761Z,99659.09
2018-07-14T03:17:20.441Z,99664.94
2018-07-14T03:19:49.061Z,99667.84
2018-07-14T03:22:17.686Z,99662.12
2018-07-14T03:24:46.304Z,99662.75
2018-07-14T03:27:14.912Z,99661.70
2018-07-14T03:29:43.582Z,99661.80
2018-07-14T03:32:12.906Z,99665.75
2018-07-14T03:34:41.622Z,99666.66
2018-07-14T03:37:10.213Z,99671.80
2018-07-14T03:39:38.846Z,99668.08
2018-07-14T03:42:07.483Z,99666.72
2018-07-14T03:44:36.018Z,99667.36
2018-07-14T03:47:04.690Z,99662.91
2018-07-14T03:49:33.271Z,99665.51
2018-07-14T03:52:01.840Z,99664.54
2018-07-14T03:54:31.393Z,99672.97
2018-07-14T03:57:00.059Z,99681.73
2018-07-14T03:59:28.670Z,99680.66
2018-07-14T04:01:57.263Z,99690.02
2018-07-14T04:04:25.960Z,99691.61
2018-07-14T04:06:55.975Z,99689.08
2018-07-14T04:09:24.618Z,99684.07
2018-07-14T04:11:53.218Z,99683.65
2018-07-14T04:14:21.846Z,99687.09
2018-07-14T04:16:50.473Z,99692.65
2018-07-14T04:19:19.110Z,99696.03
2018-07-14T04:21:47.801Z,99691.19
2018-07-14T04:24:16.831Z,99694.73
2018-07-14T04:26:45.469Z,99697.20
2018-07-14T04:29:14.868Z,99698.70
2018-07-14T04:31:43.559Z,99700.28
2018-07-14T04:34:12.153Z,99706.11
2018-07-14T04:36:40.816Z,99712.34
2018-07-14T04:39:09.433Z,99717.77
2018-07-14T04:41:38.074Z,99713.88
2018-07-14T04:44:06.765Z,99719.50
2018-07-14T04:46:35.387Z,99717.17
2018-07-14T04:49:04.006Z,99712.65
2018-07-14T04:51:32.587Z,99721.33
2018-07-14T04:54:01.326Z,99721.38
2018-07-14T04:56:29.950Z,99725.78
2018-07-14T04:58:58.626Z,99719.69
2018-07-14T05:01:27.256Z,99723.01
2018-07-14T05:03:55.855Z,99724.25
2018-07-14T05:06:24.521Z,99720.72
2018-07-14T05:08:53.080Z,99715.18
2018-07-14T05:11:21.693Z,99717.09
2018-07-14T05:13:50.338Z,99714.08
2018-07-14T05:16:19.055Z,99719.02
2018-07-14T05:18:47.772Z,99721.72
2018-07-14T05:21:16.522Z,99720.23
2018-07-14T05:23:45.233Z,99716.84
2018-07-14T05:26:14.909Z,99717.13
2018-07-14T05:28:43.654Z,99718.05
2018-07-14T05:31:12.170Z,99717.66
2018-07-14T05:33:41.055Z,99720.47
2018-07-14T05:36:09.686Z,99716.19
2018-07-14T05:38:38.289Z,99721.02
2018-07-14T05:41:06.914Z,99719.91
2018-07-14T05:43:35.537Z,99719.42
2018-07-14T05:46:04.160Z,99718.87
2018-07-14T05:48:32.777Z,99713.08
2018-07-14T05:51:01.527Z,99727.58
2018-07-14T05:53:30.170Z,99722.45
2018-07-14T05:55:59.019Z,99728.08
2018-07-14T05:58:27.633Z,99721.55
2018-07-14T06:00:57.304Z,99731.03
2018-07-14T06:03:26.054Z,99733.08
2018-07-14T06:05:54.725Z,99724.20
2018-07-14T06:08:23.442Z,99729.54
2018-07-14T06:10:52.053Z,99728.77
2018-07-14T06:13:20.757Z,99735.88
2018-07-14T06:15:49.660Z,99740.33
2018-07-14T06:18:18.294Z,99734.72
2018-07-14T06:20:47.285Z,99735.20
2018-07-14T06:23:15.884Z,99740.42
2018-07-14T06:25:44.685Z,99736.50
2018-07-14T06:28:13.328Z,99727.61
2018-07-14T06:30:43.566Z,99736.40
2018-07-14T06:33:12.205Z,99735.59
2018-07-14T06:35:40.829Z,99741.92
2018-07-14T06:38:09.522Z,99737.89
2018-07-14T06:40:38.164Z,99736.61
2018-07-14T06:43:06.886Z,99742.67
2018-07-14T06:45:35.467Z,99744.25
2018-07-14T06:48:04.139Z,99746.11
2018-07-14T06:50:32.849Z,99749.58
2018-07-14T06:53:01.728Z,99747.21
2018-07-14T06:55:30.999Z,99744.98
2018-07-14T06:58:00.861Z,99750.72
2018-07-14T07:00:29.507Z,99751.73
2018-07-14T07:02:58.168Z,99747.72
2018-07-14T07:05:26.841Z,99749.62
2018-07-14T07:07:55.501Z,99746.62
2018-07-14T07:10:24.091Z,99748.75
2018-07-14T07:12:52.808Z,99749.53
2018-07-14T07:15:21.649Z,99745.69
2018-07-14T07:17:50.280Z,99746.92
2018-07-14T07:20:18.937Z,99738.22
2018-07-14T07:22:48.307Z,99740.53
2018-07-14T07:25:16.915Z,99731.83
2018-07-14T07:27:45.541Z,99730.09
2018-07-14T07:30:14.229Z,99731.70
2018-07-14T07:32:42.805Z,99733.75
2018-07-14T07:35:11.474Z,99730.62
2018-07-14T07:37:40.136Z,99726.44
2018-07-14T07:40:08.829Z,99725.49
2018-07-14T07:42:37.484Z,99719.43
2018-07-14T07:45:06.517Z,99717.80
2018-07-14T07:47:35.264Z,99718.34
2018-07-14T07:50:03.952Z,99717.98
2018-07-14T07:52:32.725Z,99717.20
2018-07-14T07:55:01.469Z,99715.85
2018-07-14T07:57:30.139Z,99714.55
2018-07-14T07:59:58.852Z,99720.03
2018-07-14T08:02:27.589Z,99725.67
2018-07-14T08:04:56.254Z,99717.67
2018-07-14T08:07:24.922Z,99719.37
2018-07-14T08:09:53.545Z,99716.61
2018-07-14T08:12:22.185Z,99712.22
2018-07-14T08:14:50.849Z,99712.13
2018-07-14T08:17:19.582Z,99713.06
2018-07-14T08:19:48.273Z,99712.97
2018-07-14T08:22:16.963Z,99709.91
2018-07-14T08:24:45.609Z,99715.69
2018-07-14T08:27:14.234Z,99717.98
2018-07-14T08:29:43.041Z,99721.20
2018-07-14T08:32:11.644Z,99716.93
2018-07-14T08:34:40.430Z,99725.17
2018-07-14T08:37:09.158Z,99720.13
2018-07-14T08:39:38.289Z,99719.56
2018-07-14T08:42:07.229Z,99719.33
2018-07-14T08:44:36.106Z,99715.84
2018-07-14T08:47:04.786Z,99719.54
2018-07-14T08:49:33.481Z,99719.66
2018-07-14T08:52:02.185Z,99713.53
2018-07-14T08:54:30.824Z,99718.66
2018-07-14T08:56:59.466Z,99720.00
2018-07-14T08:59:28.230Z,99718.92
2018-07-14T09:01:57.000Z,99717.98
2018-07-14T09:04:25.848Z,99713.69
2018-07-14T09:06:54.493Z,99708.42
2018-07-14T09:09:23.252Z,99709.16
2018-07-14T09:11:52.030Z,99711.97
2018-07-14T09:14:21.662Z,99703.47
2018-07-14T09:16:50.439Z,99705.14
2018-07-14T09:19:21.442Z,99704.41
2018-07-14T09:21:50.085Z,99701.70
2018-07-14T09:24:18.725Z,99701.34
2018-07-14T09:26:47.561Z,99702.09
2018-07-14T09:29:16.289Z,99701.61
2018-07-14T09:31:44.956Z,99696.30
2018-07-14T09:34:13.676Z,99695.30
2018-07-14T09:36:42.534Z,99695.67
2018-07-14T09:39:11.206Z,99693.41
2018-07-14T09:41:39.925Z,99696.84
2018-07-14T09:44:08.582Z,99699.55
2018-07-14T09:46:37.298Z,99689.76
2018-07-14T09:49:05.988Z,99689.20
2018-07-14T09:51:34.717Z,99686.80
2018-07-14T09:54:03.415Z,99684.23
2018-07-14T09:56:32.950Z,99685.44
2018-07-14T09:59:01.635Z,99680.48
2018-07-14T10:01:30.303Z,99676.53
2018-07-14T10:03:58.993Z,99672.91
2018-07-14T10:06:27.639Z,99662.62
2018-07-14T10:08:56.298Z,99663.63
2018-07-14T10:11:24.950Z,99661.73
2018-07-14T10:13:53.652Z,99663.05
2018-07-14T10:16:22.318Z,99668.02
2018-07-14T10:18:51.040Z,99656.98
2018-07-14T10:21:19.657Z,99653.25
2018-07-14T10:23:48.277Z,99654.17
2018-07-14T10:26:16.933Z,99649.09
2018-07-14T10:28:45.561Z,99646.81
2018-07-14T10:31:14.181Z,99646.07
2018-07-14T10:33:42.882Z,99629.48
2018-07-14T10:36:11.469Z,99635.93
2018-07-14T10:38:40.229Z,99632.53
2018-07-14T10:41:09.078Z,99627.34
2018-07-14T10:43:37.722Z,99625.25
2018-07-14T10:46:06.518Z,99622.19
2018-07-14T10:48:35.241Z,99621.51
2018-07-14T10:51:03.858Z,99624.82
2018-07-14T10:53:32.526Z,99613.05
2018-07-14T10:56:01.608Z,99613.11
2018-07-14T10:58:31.323Z,99600.81
2018-07-14T11:01:00.113Z,99598.33
2018-07-14T11:03:28.757Z,99591.58
2018-07-14T11:05:57.391Z,99583.25
2018-07-14T11:08:26.083Z,99586.69
2018-07-14T11:10:54.773Z,99589.79
2018-07-14T11:13:23.450Z,99584.34
2018-07-14T11:15:52.097Z,99588.73
2018-07-14T11:18:21.273Z,99600.38
2018-07-14T11:20:49.947Z,99604.98
2018-07-14T11:23:18.792Z,99588.20
2018-07-14T11:25:47.421Z,99583.70
2018-07-14T11:28:16.059Z,99578.98
2018-07-14T11:30:44.829Z,99573.63
2018-07-14T11:33:13.481Z,99585.55
2018-07-14T11:35:42.070Z,99575.62
2018-07-14T11:38:10.745Z,99573.56
2018-07-14T11:40:39.359Z,99569.58
2018-07-14T11:43:07.986Z,99576.52
2018-07-14T11:45:36.583Z,99572.44
2018-07-14T11:48:05.176Z,99564.08
2018-07-14T11:50:33.854Z,99565.98
2018-07-14T11:53:02.462Z,99565.95
2018-07-14T11:55:31.118Z,99556.96
2018-07-14T11:57:59.945Z,99574.75
2018-07-14T12:00:28.584Z,99555.88
2018-07-14T12:02:57.172Z,99551.62
2018-07-14T12:05:25.814Z,99542.44
2018-07-14T12:07:54.462Z,99548.55
2018-07-14T12:10:23.097Z,99544.44
2018-07-14T12:12:51.831Z,99555.95
2018-07-14T12:15:20.426Z,99548.10
2018-07-14T12:17:49.046Z,99535.05
2018-07-14T12:20:17.655Z,99534.56
2018-07-14T12:22:46.242Z,99527.06
2018-07-14T12:25:14.815Z,99521.26
2018-07-14T12:27:43.457Z,99533.73
2018-07-14T12:30:12.140Z,99519.33
2018-07-14T12:32:40.731Z,99511.69
2018-07-14T12:35:09.426Z,99516.93
2018-07-14T12:37:37.997Z,99505.80
2018-07-14T12:40:06.865Z,99505.48
2018-07-14T12:42:35.547Z,99513.09
2018-07-14T12:45:04.239Z,99521.19
2018-07-14T12:47:32.830Z,99507.09
2018-07-14T12:50:01.463Z,99501.88
2018-07-14T12:52:30.122Z,99502.08
2018-07-14T12:54:58.754Z,99495.09
2018-07-14T12:57:28.158Z,99493.28
2018-07-14T12:59:57.095Z,99499.56
2018-07-14T13:02:26.755Z,99517.84
2018-07-14T13:04:55.425Z,99524.26
2018-07-14T13:07:24.705Z,99516.50
2018-07-14T13:09:53.675Z,99527.54
2018-07-14T13:12:22.481Z,99529.89
2018-07-14T13:14:51.201Z,99528.58
2018-07-14T13:17:19.897Z,99539.69
2018-07-14T13:19:48.620Z,99537.22
2018-07-14T13:22:17.449Z,99530.25
2018-07-14T13:24:46.074Z,99547.13
2018-07-14T13:27:14.730Z,99527.02
2018-07-14T13:29:43.397Z,99540.59
2018-07-14T13:32:12.105Z,99539.50
2018-07-14T13:34:40.700Z,99534.91
2018-07-14T13:37:09.960Z,99536.42
2018-07-14T13:39:38.564Z,99540.39
2018-07-14T13:42:07.261Z,99548.96
2018-07-14T13:44:35.861Z,99543.27
2018-07-14T13:47:04.461Z,99542.58
2018-07-14T13:49:33.203Z,99545.70
2018-07-14T13:52:01.818Z,99549.73
2018-07-14T13:54:30.454Z,99543.91
2018-07-14T13:56:59.814Z,99534.81
2018-07-14T13:59:28.430Z,99541.20
2018-07-14T14:01:57.009Z,99563.90
2018-07-14T14:04:25.615Z,99549.80
2018-07-14T14:06:54.206Z,99550.69
2018-07-14T14:09:22.831Z,99542.78
2018-07-14T14:11:51.473Z,99548.80
2018-07-14T14:14:20.101Z,99546.33
2018-07-14T14:16:48.727Z,99544.02
2018-07-14T14:19:17.421Z,99551.12
2018-07-14T14:21:46.737Z,99540.12
2018-07-14T14:24:15.421Z,99545.88
2018-07-14T14:26:44.088Z,99563.10
2018-07-14T14:29:13.352Z,99557.64
2018-07-14T14:31:42.033Z,99541.84
2018-07-14T14:34:11.234Z,99535.75
2018-07-14T14:36:39.943Z,99543.63
2018-07-14T14:39:09.657Z,99545.63
2018-07-14T14:41:38.341Z,99557.93
2018-07-14T14:44:07.040Z,99546.41
2018-07-14T14:46:35.779Z,99526.80
2018-07-14T14:49:04.544Z,99521.05
2018-07-14T14:51:33.254Z,99539.29
2018-07-14T14:54:01.886Z,99530.56
2018-07-14T14:56:30.529Z,99548.08
2018-07-14T14:58:59.157Z,99516.27
2018-07-14T15:01:27.769Z,99524.38
2018-07-14T15:03:56.427Z,99522.11
2018-07-14T15:06:25.066Z,99508.34
2018-07-14T15:08:53.785Z,99508.05
2018-07-14T15:11:22.418Z,99506.55
2018-07-14T15:13:51.001Z,99507.86
2018-07-14T15:16:19.634Z,99526.66
2018-07-14T15:18:48.275Z,99532.42
2018-07-14T15:21:16.870Z,99523.81
2018-07-14T15:23:45.490Z,99531.45
2018-07-14T15:26:14.198Z,99524.09
2018-07-14T15:28:42.997Z,99532.12
2018-07-14T15:31:11.631Z,99524.13
2018-07-14T15:33:40.271Z,99533.01
2018-07-14T15:36:08.934Z,99535.83
2018-07-14T15:38:37.572Z,99534.73
2018-07-14T15:41:06.573Z,99526.41
2018-07-14T15:43:35.263Z,99527.19
2018-07-14T15:46:03.870Z,99524.64
2018-07-14T15:48:32.519Z,99513.31
2018-07-14T15:51:01.837Z,99513.13
2018-07-14T15:53:30.534Z,99508.42
2018-07-14T15:55:59.184Z,99503.41
2018-07-14T15:58:28.289Z,99512.50
2018-07-14T16:00:56.897Z,99507.82
2018-07-14T16:03:25.502Z,99500.51
2018-07-14T16:05:54.134Z,99505.84
2018-07-14T16:08:22.746Z,99503.51
2018-07-14T16:10:51.542Z,99516.05
2018-07-14T16:13:20.150Z,99505.20
2018-07-14T16:15:48.783Z,99506.17
2018-07-14T16:18:17.445Z,99497.08
2018-07-14T16:20:46.090Z,99493.69
2018-07-14T16:23:14.691Z,99485.45
2018-07-14T16:25:43.336Z,99479.45
2018-07-14T16:28:11.981Z,99488.16
2018-07-14T16:30:41.326Z,99492.75
2018-07-14T16:33:10.055Z,99493.54
2018-07-14T16:35:38.756Z,99491.21
2018-07-14T16:38:07.334Z,99489.04
2018-07-14T16:40:36.120Z,99484.69
2018-07-14T16:43:05.122Z,99483.95
2018-07-14T16:45:34.394Z,99489.55
2018-07-14T16:48:03.046Z,99486.16
2018-07-14T16:50:31.639Z,99482.83
2018-07-14T16:53:00.269Z,99483.61
2018-07-14T16:55:28.957Z,99489.22
2018-07-14T16:57:57.560Z,99481.64
2018-07-14T17:00:26.210Z,99479.05
2018-07-14T17:02:54.826Z,99480.98
2018-07-14T17:05:23.435Z,99478.16
2018-07-14T17:07:52.354Z,99478.23
2018-07-14T17:10:20.967Z,99475.22
2018-07-14T17:12:49.641Z,99475.84
2018-07-14T17:15:18.504Z,99475.14
2018-07-14T17:17:47.343Z,99473.69
2018-07-14T17:20:16.198Z,99474.03
2018-07-14T17:22:44.796Z,99467.72
2018-07-14T17:25:13.518Z,99466.42
2018-07-14T17:27:42.690Z,99469.78
2018-07-14T17:30:11.346Z,99469.16
2018-07-14T17:32:39.952Z,99459.32
2018-07-14T17:35:08.638Z,99462.02
2018-07-14T17:37:37.305Z,99457.34
2018-07-14T17:40:05.971Z,99473.61
2018-07-14T17:42:34.689Z,99468.58
2018-07-14T17:45:03.362Z,99461.34
2018-07-14T17:47:32.010Z,99459.59
2018-07-14T17:50:00.746Z,99457.99
2018-07-14T17:52:29.437Z,99461.32
2018-07-14T17:54:58.083Z,99456.98
2018-07-14T17:57:26.706Z,99459.39
2018-07-14T17:59:55.443Z,99456.48
2018-07-14T18:02:24.160Z,99453.67
2018-07-14T18:04:52.814Z,99449.08
2018-07-14T18:07:21.442Z,99457.47
2018-07-14T18:09:50.085Z,99454.27
2018-07-14T18:12:18.756Z,99453.83
2018-07-14T18:14:47.438Z,99454.27
2018-07-14T18:17:16.834Z,99447.48
2018-07-14T18:19:46.124Z,99441.45
2018-07-14T18:22:14.794Z,99437.50
2018-07-14T18:24:43.407Z,99436.89
2018-07-14T18:27:12.065Z,99431.29
2018-07-14T18:29:40.738Z,99436.87
2018-07-14T18:32:09.977Z,99439.16
2018-07-14T18:34:38.651Z,99433.31
2018-07-14T18:37:07.265Z,99429.81
2018-07-14T18:39:35.917Z,99431.81
2018-07-14T18:42:05.242Z,99437.27
2018-07-14T18:44:33.914Z,99438.48
2018-07-14T18:47:02.597Z,99433.69
2018-07-14T18:49:31.282Z,99446.28
2018-07-14T18:51:59.951Z,99443.33
2018-07-14T18:54:28.638Z,99453.67
2018-07-14T18:56:57.383Z,99448.02
2018-07-14T18:59:26.039Z,99448.07
2018-07-14T19:01:54.697Z,99451.78
2018-07-14T19:04:23.482Z,99455.64
2018-07-14T19:06:52.157Z,99455.48
2018-07-14T19:09:20.862Z,99452.20
2018-07-14T19:11:49.523Z,99448.30
2018-07-14T19:14:18.158Z,99450.25
2018-07-14T19:16:47.455Z,99451.86
2018-07-14T19:19:16.145Z,99452.06
2018-07-14T19:21:44.877Z,99450.34
2018-07-14T19:24:13.571Z,99458.97
2018-07-14T19:26:42.210Z,99468.06
2018-07-14T19:29:10.846Z,99473.28
2018-07-14T19:31:39.626Z,99473.61
2018-07-14T19:34:08.417Z,99468.17
2018-07-14T19:36:37.153Z,99478.55
2018-07-14T19:39:07.062Z,99480.13
2018-07-14T19:41:35.761Z,99480.13
2018-07-14T19:44:04.630Z,99482.36
2018-07-14T19:46:35.128Z,99481.64
2018-07-14T19:49:04.316Z,99477.17
2018-07-14T19:51:34.289Z,99480.48
2018-07-14T19:54:02.945Z,99491.27
2018-07-14T19:56:31.565Z,99484.04
2018-07-14T19:59:00.186Z,99493.50
2018-07-14T20:01:28.769Z,99484.92
2018-07-14T20:03:57.383Z,99483.95
2018-07-14T20:06:26.115Z,99489.69
2018-07-14T20:08:54.794Z,99491.95
2018-07-14T20:11:24.920Z,99497.16
2018-07-14T20:13:53.563Z,99494.48
2018-07-14T20:16:22.164Z,99492.91
2018-07-14T20:18:50.800Z,99489.00
2018-07-14T20:21:19.415Z,99478.89
2018-07-14T20:23:47.992Z,99483.83
2018-07-14T20:26:16.707Z,99495.07
2018-07-14T20:28:45.409Z,99496.48
2018-07-14T20:31:14.094Z,99495.18
2018-07-14T20:33:42.815Z,99497.78
2018-07-14T20:36:11.467Z,99501.31
2018-07-14T20:38:40.089Z,99504.00
2018-07-14T20:41:08.739Z,99499.47
2018-07-14T20:43:37.439Z,99500.20
2018-07-14T20:46:06.422Z,99507.37
2018-07-14T20:48:35.245Z,99510.78
2018-07-14T20:51:03.870Z,99508.18
2018-07-14T20:53:32.472Z,99509.44
2018-07-14T20:56:01.475Z,99506.94
2018-07-14T20:58:30.097Z,99508.42
2018-07-14T21:00:58.715Z,99511.33
2018-07-14T21:03:27.349Z,99509.53
2018-07-14T21:05:56.377Z,99506.66
2018-07-14T21:08:25.086Z,99511.02
2018-07-14T21:10:53.714Z,99506.92
2018-07-14T21:13:22.361Z,99511.59
2018-07-14T21:15:51.055Z,99505.92
2018-07-14T21:18:19.672Z,99507.69
2018-07-14T21:20:48.432Z,99514.73
2018-07-14T21:23:16.978Z,99510.27
2018-07-14T21:25:45.892Z,99510.84
2018-07-14T21:28:14.589Z,99511.22
2018-07-14T21:30:43.208Z,99519.03
2018-07-14T21:33:12.121Z,99511.33
2018-07-14T21:35:42.749Z,99510.28
2018-07-14T21:38:14.521Z,99513.00
2018-07-14T21:40:43.185Z,99516.33
2018-07-14T21:43:11.825Z,99514.02
2018-07-14T21:45:40.741Z,99522.47
2018-07-14T21:48:09.422Z,99515.52
2018-07-14T21:50:38.177Z,99519.61
2018-07-14T21:53:07.158Z,99516.34
2018-07-14T21:55:36.767Z,99515.52
2018-07-14T21:58:05.519Z,99516.88
2018-07-14T22:00:39.212Z,99515.56
2018-07-14T22:03:08.760Z,99513.42
2018-07-14T22:05:37.953Z,99517.52
2018-07-14T22:08:06.626Z,99508.55
2018-07-14T22:10:35.375Z,99502.80
2018-07-14T22:13:04.069Z,99517.91
2018-07-14T22:15:32.873Z,99515.42
2018-07-14T22:18:01.516Z,99510.77
2018-07-14T22:20:30.154Z,99514.11
2018-07-14T22:22:58.782Z,99512.27
2018-07-14T22:25:27.797Z,99506.48
2018-07-14T22:27:56.447Z,99511.73
2018-07-14T22:30:25.110Z,99514.73
2018-07-14T22:32:53.786Z,99517.03
2018-07-14T22:35:22.461Z,99510.66
2018-07-14T22:37:51.065Z,99509.86
2018-07-14T22:40:19.680Z,99515.30
2018-07-14T22:42:48.861Z,99511.73
2018-07-14T22:45:17.479Z,99513.20
2018-07-14T22:47:46.078Z,99511.16
2018-07-14T22:50:14.705Z,99510.34
2018-07-14T22:52:43.340Z,99512.83
2018-07-14T22:55:12.455Z,99509.81
2018-07-14T22:57:41.162Z,99515.75
2018-07-14T23:00:09.969Z,99511.63
2018-07-14T23:02:38.597Z,99510.70
2018-07-14T23:05:07.222Z,99521.09
2018-07-14T23:07:35.869Z,99508.02
2018-07-14T23:10:04.583Z,99518.64
2018-07-14T23:12:33.170Z,99515.19
2018-07-14T23:15:02.086Z,99514.34
2018-07-14T23:17:30.741Z,99513.88
2018-07-14T23:19:59.403Z,99516.61
2018-07-14T23:22:28.018Z,99511.20
2018-07-14T23:24:56.605Z,99514.34
2018-07-14T23:27:25.452Z,99514.16
2018-07-14T23:29:54.141Z,99509.98
2018-07-14T23:32:22.826Z,99513.80
2018-07-14T23:34:51.454Z,99514.08
2018-07-14T23:37:20.117Z,99514.42
2018-07-14T23:39:48.781Z,99507.02
2018-07-14T23:42:17.437Z,99511.59
2018-07-14T23:44:46.203Z,99512.14
2018-07-14T23:47:14.839Z,99522.11
2018-07-14T23:49:43.453Z,99520.25
2018-07-14T23:52:12.085Z,99524.05
2018-07-14T23:54:40.927Z,99521.07
2018-07-14T23:57:10.737Z,99524.89
2018-07-14T23:59:39.351Z,99523.04
